sensor_id;sensor_type;location;lat;lon;timestamp;P1;durP1;ratioP1;P2;durP2;ratioP2
11346;SDS011;5728;42.722;23.258;2022-07-29T00:01:23;11.15;;;9.45;;
11346;SDS011;5728;42.722;23.258;2022-07-29T00:03:50;11.77;;;10.48;;
11346;SDS011;5728;42.722;23.258;2022-07-29T00:06:16;11.52;;;9.80;;
11346;SDS011;5728;42.722;23.258;2022-07-29T00:08:45;11.13;;;9.93;;
11346;SDS011;5728;42.722;23.258;2022-07-29T00:11:11;11.70;;;9.77;;
11346;SDS011;5728;42.722;23.258;2022-07-29T00:13:38;15.88;;;10.13;;
11346;SDS011;5728;42.722;23.258;2022-07-29T00:16:05;10.60;;;8.88;;
11346;SDS011;5728;42.722;23.258;2022-07-29T00:18:32;11.68;;;10.27;;
11346;SDS011;5728;42.722;23.258;2022-07-29T00:20:58;10.48;;;8.63;;
11346;SDS011;5728;42.722;23.258;2022-07-29T00:23:25;15.70;;;9.25;;
11346;SDS011;5728;42.722;23.258;2022-07-29T00:25:53;10.95;;;9.00;;
11346;SDS011;5728;42.722;23.258;2022-07-29T00:28:20;15.50;;;9.73;;
11346;SDS011;5728;42.722;23.258;2022-07-29T00:30:47;13.48;;;8.95;;
11346;SDS011;5728;42.722;23.258;2022-07-29T00:33:14;14.30;;;9.63;;
11346;SDS011;5728;42.722;23.258;2022-07-29T00:35:40;13.82;;;9.52;;
11346;SDS011;5728;42.722;23.258;2022-07-29T00:38:09;12.27;;;9.23;;
11346;SDS011;5728;42.722;23.258;2022-07-29T00:40:36;12.88;;;9.50;;
11346;SDS011;5728;42.722;23.258;2022-07-29T00:43:04;14.20;;;9.48;;
11346;SDS011;5728;42.722;23.258;2022-07-29T00:45:30;16.70;;;10.68;;
11346;SDS011;5728;42.722;23.258;2022-07-29T00:47:57;11.32;;;9.80;;
11346;SDS011;5728;42.722;23.258;2022-07-29T00:50:24;15.25;;;9.32;;
11346;SDS011;5728;42.722;23.258;2022-07-29T00:52:51;13.75;;;10.70;;
11346;SDS011;5728;42.722;23.258;2022-07-29T00:55:19;22.65;;;11.10;;
11346;SDS011;5728;42.722;23.258;2022-07-29T00:57:45;13.00;;;10.25;;
11346;SDS011;5728;42.722;23.258;2022-07-29T01:00:15;14.18;;;11.55;;
11346;SDS011;5728;42.722;23.258;2022-07-29T01:02:44;14.88;;;10.43;;
11346;SDS011;5728;42.722;23.258;2022-07-29T01:05:13;15.05;;;9.85;;
11346;SDS011;5728;42.722;23.258;2022-07-29T01:07:42;13.50;;;10.95;;
11346;SDS011;5728;42.722;23.258;2022-07-29T01:10:11;15.68;;;10.95;;
11346;SDS011;5728;42.722;23.258;2022-07-29T01:12:39;14.68;;;11.18;;
11346;SDS011;5728;42.722;23.258;2022-07-29T01:15:09;13.90;;;10.88;;
11346;SDS011;5728;42.722;23.258;2022-07-29T01:17:41;15.30;;;10.95;;
11346;SDS011;5728;42.722;23.258;2022-07-29T01:20:12;13.85;;;10.82;;
11346;SDS011;5728;42.722;23.258;2022-07-29T01:25:46;12.95;;;11.55;;
11346;SDS011;5728;42.722;23.258;2022-07-29T01:28:33;15.70;;;10.68;;
11346;SDS011;5728;42.722;23.258;2022-07-29T01:31:17;16.27;;;10.68;;
11346;SDS011;5728;42.722;23.258;2022-07-29T01:33:49;13.15;;;10.63;;
11346;SDS011;5728;42.722;23.258;2022-07-29T01:36:25;13.93;;;11.32;;
11346;SDS011;5728;42.722;23.258;2022-07-29T01:38:58;19.38;;;11.98;;
11346;SDS011;5728;42.722;23.258;2022-07-29T01:41:29;14.77;;;12.18;;
11346;SDS011;5728;42.722;23.258;2022-07-29T01:44:02;18.83;;;11.38;;
11346;SDS011;5728;42.722;23.258;2022-07-29T01:46:35;16.35;;;12.43;;
11346;SDS011;5728;42.722;23.258;2022-07-29T01:49:06;16.30;;;11.73;;
11346;SDS011;5728;42.722;23.258;2022-07-29T01:51:39;15.85;;;12.00;;
11346;SDS011;5728;42.722;23.258;2022-07-29T01:54:10;18.73;;;11.30;;
11346;SDS011;5728;42.722;23.258;2022-07-29T01:56:40;13.90;;;11.70;;
11346;SDS011;5728;42.722;23.258;2022-07-29T01:59:11;20.98;;;11.27;;
11346;SDS011;5728;42.722;23.258;2022-07-29T02:01:39;16.77;;;10.73;;
11346;SDS011;5728;42.722;23.258;2022-07-29T02:04:07;14.05;;;11.10;;
11346;SDS011;5728;42.722;23.258;2022-07-29T02:06:37;15.07;;;11.00;;
11346;SDS011;5728;42.722;23.258;2022-07-29T02:09:06;17.88;;;11.68;;
11346;SDS011;5728;42.722;23.258;2022-07-29T02:11:35;17.08;;;12.15;;
11346;SDS011;5728;42.722;23.258;2022-07-29T02:14:04;23.48;;;11.13;;
11346;SDS011;5728;42.722;23.258;2022-07-29T02:16:34;16.30;;;12.38;;
11346;SDS011;5728;42.722;23.258;2022-07-29T02:19:04;14.82;;;10.63;;
11346;SDS011;5728;42.722;23.258;2022-07-29T02:21:33;12.43;;;10.88;;
11346;SDS011;5728;42.722;23.258;2022-07-29T02:24:02;13.20;;;10.60;;
11346;SDS011;5728;42.722;23.258;2022-07-29T02:26:30;13.50;;;10.65;;
11346;SDS011;5728;42.722;23.258;2022-07-29T02:28:59;13.77;;;11.32;;
11346;SDS011;5728;42.722;23.258;2022-07-29T02:31:29;17.75;;;11.07;;
11346;SDS011;5728;42.722;23.258;2022-07-29T02:34:00;13.95;;;11.40;;
11346;SDS011;5728;42.722;23.258;2022-07-29T02:36:28;14.40;;;10.82;;
11346;SDS011;5728;42.722;23.258;2022-07-29T02:38:57;14.80;;;10.55;;
11346;SDS011;5728;42.722;23.258;2022-07-29T02:41:27;15.57;;;10.95;;
11346;SDS011;5728;42.722;23.258;2022-07-29T02:43:56;15.68;;;10.60;;
11346;SDS011;5728;42.722;23.258;2022-07-29T02:46:26;19.65;;;12.15;;
11346;SDS011;5728;42.722;23.258;2022-07-29T02:48:58;12.20;;;10.32;;
11346;SDS011;5728;42.722;23.258;2022-07-29T02:51:33;14.23;;;10.60;;
11346;SDS011;5728;42.722;23.258;2022-07-29T02:54:07;15.02;;;11.60;;
11346;SDS011;5728;42.722;23.258;2022-07-29T02:56:35;13.90;;;11.65;;
11346;SDS011;5728;42.722;23.258;2022-07-29T02:59:06;17.67;;;11.60;;
11346;SDS011;5728;42.722;23.258;2022-07-29T03:01:38;14.27;;;12.07;;
11346;SDS011;5728;42.722;23.258;2022-07-29T03:04:11;15.50;;;12.63;;
11346;SDS011;5728;42.722;23.258;2022-07-29T03:06:40;15.65;;;11.55;;
11346;SDS011;5728;42.722;23.258;2022-07-29T03:09:10;15.10;;;11.73;;
11346;SDS011;5728;42.722;23.258;2022-07-29T03:11:38;15.70;;;11.63;;
11346;SDS011;5728;42.722;23.258;2022-07-29T03:14:05;13.95;;;11.52;;
11346;SDS011;5728;42.722;23.258;2022-07-29T03:16:33;15.88;;;11.57;;
11346;SDS011;5728;42.722;23.258;2022-07-29T03:19:02;18.70;;;11.43;;
11346;SDS011;5728;42.722;23.258;2022-07-29T03:21:32;14.95;;;11.30;;
11346;SDS011;5728;42.722;23.258;2022-07-29T03:24:00;15.75;;;12.02;;
11346;SDS011;5728;42.722;23.258;2022-07-29T03:26:26;17.20;;;11.90;;
11346;SDS011;5728;42.722;23.258;2022-07-29T03:28:54;14.85;;;12.25;;
11346;SDS011;5728;42.722;23.258;2022-07-29T03:31:21;16.00;;;11.90;;
11346;SDS011;5728;42.722;23.258;2022-07-29T03:33:48;18.92;;;14.15;;
11346;SDS011;5728;42.722;23.258;2022-07-29T03:36:14;17.80;;;13.73;;
11346;SDS011;5728;42.722;23.258;2022-07-29T03:38:42;20.38;;;12.35;;
11346;SDS011;5728;42.722;23.258;2022-07-29T03:41:12;18.30;;;14.93;;
11346;SDS011;5728;42.722;23.258;2022-07-29T03:43:40;17.45;;;13.98;;
11346;SDS011;5728;42.722;23.258;2022-07-29T03:46:09;18.90;;;13.75;;
11346;SDS011;5728;42.722;23.258;2022-07-29T03:48:39;16.20;;;12.90;;
11346;SDS011;5728;42.722;23.258;2022-07-29T03:51:12;17.73;;;13.38;;
11346;SDS011;5728;42.722;23.258;2022-07-29T03:53:39;17.45;;;11.63;;
11346;SDS011;5728;42.722;23.258;2022-07-29T03:56:08;17.17;;;11.73;;
11346;SDS011;5728;42.722;23.258;2022-07-29T03:58:38;17.02;;;12.88;;
11346;SDS011;5728;42.722;23.258;2022-07-29T04:01:05;19.25;;;12.43;;
11346;SDS011;5728;42.722;23.258;2022-07-29T04:03:32;21.15;;;13.65;;
11346;SDS011;5728;42.722;23.258;2022-07-29T04:06:01;15.85;;;12.82;;
11346;SDS011;5728;42.722;23.258;2022-07-29T04:08:30;20.45;;;13.18;;
11346;SDS011;5728;42.722;23.258;2022-07-29T04:10:57;18.92;;;13.77;;
11346;SDS011;5728;42.722;23.258;2022-07-29T04:13:26;16.35;;;12.77;;
11346;SDS011;5728;42.722;23.258;2022-07-29T04:15:53;18.08;;;12.10;;
11346;SDS011;5728;42.722;23.258;2022-07-29T04:18:19;15.73;;;12.38;;
11346;SDS011;5728;42.722;23.258;2022-07-29T04:20:46;21.48;;;11.38;;
11346;SDS011;5728;42.722;23.258;2022-07-29T04:23:13;14.77;;;12.02;;
11346;SDS011;5728;42.722;23.258;2022-07-29T04:25:40;21.00;;;12.27;;
11346;SDS011;5728;42.722;23.258;2022-07-29T04:28:08;16.23;;;11.65;;
11346;SDS011;5728;42.722;23.258;2022-07-29T04:30:37;16.83;;;12.43;;
11346;SDS011;5728;42.722;23.258;2022-07-29T04:33:05;15.93;;;12.75;;
11346;SDS011;5728;42.722;23.258;2022-07-29T04:35:34;17.92;;;12.43;;
11346;SDS011;5728;42.722;23.258;2022-07-29T04:38:02;17.98;;;13.05;;
11346;SDS011;5728;42.722;23.258;2022-07-29T04:40:30;20.30;;;12.80;;
11346;SDS011;5728;42.722;23.258;2022-07-29T04:42:58;13.00;;;11.52;;
11346;SDS011;5728;42.722;23.258;2022-07-29T04:45:25;17.95;;;11.55;;
11346;SDS011;5728;42.722;23.258;2022-07-29T04:47:53;18.50;;;12.45;;
11346;SDS011;5728;42.722;23.258;2022-07-29T04:50:20;17.50;;;12.18;;
11346;SDS011;5728;42.722;23.258;2022-07-29T04:52:47;15.60;;;11.55;;
11346;SDS011;5728;42.722;23.258;2022-07-29T04:55:14;18.88;;;12.15;;
11346;SDS011;5728;42.722;23.258;2022-07-29T04:57:40;18.88;;;12.45;;
11346;SDS011;5728;42.722;23.258;2022-07-29T05:00:08;20.52;;;12.40;;
11346;SDS011;5728;42.722;23.258;2022-07-29T05:02:35;23.15;;;12.60;;
11346;SDS011;5728;42.722;23.258;2022-07-29T05:05:04;19.85;;;12.43;;
11346;SDS011;5728;42.722;23.258;2022-07-29T05:07:31;17.92;;;12.25;;
11346;SDS011;5728;42.722;23.258;2022-07-29T05:09:58;18.90;;;14.05;;
11346;SDS011;5728;42.722;23.258;2022-07-29T05:12:24;16.67;;;13.02;;
11346;SDS011;5728;42.722;23.258;2022-07-29T05:14:51;16.48;;;12.88;;
11346;SDS011;5728;42.722;23.258;2022-07-29T05:17:18;21.25;;;12.90;;
11346;SDS011;5728;42.722;23.258;2022-07-29T05:19:45;16.02;;;12.45;;
11346;SDS011;5728;42.722;23.258;2022-07-29T05:22:13;17.15;;;12.45;;
11346;SDS011;5728;42.722;23.258;2022-07-29T05:24:40;16.20;;;12.50;;
11346;SDS011;5728;42.722;23.258;2022-07-29T05:27:07;16.30;;;12.13;;
11346;SDS011;5728;42.722;23.258;2022-07-29T05:29:34;16.92;;;12.15;;
11346;SDS011;5728;42.722;23.258;2022-07-29T05:32:01;19.33;;;12.60;;
11346;SDS011;5728;42.722;23.258;2022-07-29T05:34:28;14.50;;;12.27;;
11346;SDS011;5728;42.722;23.258;2022-07-29T05:36:56;19.05;;;11.82;;
11346;SDS011;5728;42.722;23.258;2022-07-29T05:39:24;16.88;;;13.00;;
11346;SDS011;5728;42.722;23.258;2022-07-29T05:41:51;13.95;;;12.45;;
11346;SDS011;5728;42.722;23.258;2022-07-29T05:44:17;19.30;;;12.70;;
11346;SDS011;5728;42.722;23.258;2022-07-29T05:46:44;17.75;;;13.00;;
11346;SDS011;5728;42.722;23.258;2022-07-29T05:49:11;18.88;;;12.65;;
11346;SDS011;5728;42.722;23.258;2022-07-29T05:51:38;21.05;;;13.30;;
11346;SDS011;5728;42.722;23.258;2022-07-29T05:54:05;20.85;;;13.63;;
11346;SDS011;5728;42.722;23.258;2022-07-29T05:56:33;18.70;;;12.77;;
11346;SDS011;5728;42.722;23.258;2022-07-29T05:59:02;17.45;;;13.70;;
11346;SDS011;5728;42.722;23.258;2022-07-29T06:01:28;22.38;;;12.98;;
11346;SDS011;5728;42.722;23.258;2022-07-29T06:03:56;21.42;;;13.35;;
11346;SDS011;5728;42.722;23.258;2022-07-29T06:06:23;23.60;;;13.95;;
11346;SDS011;5728;42.722;23.258;2022-07-29T06:08:50;18.52;;;13.60;;
11346;SDS011;5728;42.722;23.258;2022-07-29T06:11:17;16.75;;;14.35;;
11346;SDS011;5728;42.722;23.258;2022-07-29T06:13:45;22.48;;;14.07;;
11346;SDS011;5728;42.722;23.258;2022-07-29T06:16:12;20.05;;;12.75;;
11346;SDS011;5728;42.722;23.258;2022-07-29T06:18:39;17.15;;;13.20;;
11346;SDS011;5728;42.722;23.258;2022-07-29T06:21:07;17.25;;;13.40;;
11346;SDS011;5728;42.722;23.258;2022-07-29T06:23:35;19.08;;;12.63;;
11346;SDS011;5728;42.722;23.258;2022-07-29T06:26:02;20.15;;;12.63;;
11346;SDS011;5728;42.722;23.258;2022-07-29T06:28:31;16.60;;;11.90;;
11346;SDS011;5728;42.722;23.258;2022-07-29T06:30:59;15.63;;;12.27;;
11346;SDS011;5728;42.722;23.258;2022-07-29T06:33:26;23.33;;;12.23;;
11346;SDS011;5728;42.722;23.258;2022-07-29T06:35:53;22.35;;;13.13;;
11346;SDS011;5728;42.722;23.258;2022-07-29T06:38:19;15.20;;;12.35;;
11346;SDS011;5728;42.722;23.258;2022-07-29T06:40:46;15.93;;;11.52;;
11346;SDS011;5728;42.722;23.258;2022-07-29T06:43:29;32.38;;;10.88;;
11346;SDS011;5728;42.722;23.258;2022-07-29T06:46:03;17.67;;;11.45;;
11346;SDS011;5728;42.722;23.258;2022-07-29T06:48:32;14.60;;;9.93;;
11346;SDS011;5728;42.722;23.258;2022-07-29T06:50:59;15.35;;;10.30;;
11346;SDS011;5728;42.722;23.258;2022-07-29T06:53:26;18.15;;;10.75;;
11346;SDS011;5728;42.722;23.258;2022-07-29T06:55:53;15.77;;;9.60;;
11346;SDS011;5728;42.722;23.258;2022-07-29T06:58:20;11.63;;;8.63;;
11346;SDS011;5728;42.722;23.258;2022-07-29T07:00:47;16.77;;;9.13;;
11346;SDS011;5728;42.722;23.258;2022-07-29T07:03:16;12.43;;;8.00;;
11346;SDS011;5728;42.722;23.258;2022-07-29T07:05:43;11.18;;;8.60;;
11346;SDS011;5728;42.722;23.258;2022-07-29T07:08:11;8.30;;;4.95;;
11346;SDS011;5728;42.722;23.258;2022-07-29T07:10:38;7.43;;;4.60;;
11346;SDS011;5728;42.722;23.258;2022-07-29T07:13:05;5.38;;;4.40;;
11346;SDS011;5728;42.722;23.258;2022-07-29T07:15:32;5.55;;;4.10;;
11346;SDS011;5728;42.722;23.258;2022-07-29T07:17:59;6.35;;;4.32;;
11346;SDS011;5728;42.722;23.258;2022-07-29T07:20:27;5.95;;;4.03;;
11346;SDS011;5728;42.722;23.258;2022-07-29T07:22:54;6.07;;;4.18;;
11346;SDS011;5728;42.722;23.258;2022-07-29T07:25:21;4.85;;;4.00;;
11346;SDS011;5728;42.722;23.258;2022-07-29T07:27:48;7.20;;;4.47;;
11346;SDS011;5728;42.722;23.258;2022-07-29T07:30:15;5.03;;;3.55;;
11346;SDS011;5728;42.722;23.258;2022-07-29T07:32:41;6.55;;;4.07;;
11346;SDS011;5728;42.722;23.258;2022-07-29T07:35:08;11.00;;;4.32;;
11346;SDS011;5728;42.722;23.258;2022-07-29T07:37:38;5.68;;;3.50;;
11346;SDS011;5728;42.722;23.258;2022-07-29T07:40:07;4.07;;;3.67;;
11346;SDS011;5728;42.722;23.258;2022-07-29T07:42:36;5.63;;;3.92;;
11346;SDS011;5728;42.722;23.258;2022-07-29T07:45:03;6.07;;;3.67;;
11346;SDS011;5728;42.722;23.258;2022-07-29T07:47:31;6.18;;;3.75;;
11346;SDS011;5728;42.722;23.258;2022-07-29T07:49:58;8.40;;;4.60;;
11346;SDS011;5728;42.722;23.258;2022-07-29T07:52:25;9.50;;;3.97;;
11346;SDS011;5728;42.722;23.258;2022-07-29T07:54:53;4.90;;;3.85;;
11346;SDS011;5728;42.722;23.258;2022-07-29T07:57:20;6.45;;;3.95;;
11346;SDS011;5728;42.722;23.258;2022-07-29T07:59:47;9.13;;;4.03;;
11346;SDS011;5728;42.722;23.258;2022-07-29T08:02:13;6.07;;;3.97;;
11346;SDS011;5728;42.722;23.258;2022-07-29T08:04:40;5.32;;;4.28;;
11346;SDS011;5728;42.722;23.258;2022-07-29T08:07:07;5.07;;;4.57;;
11346;SDS011;5728;42.722;23.258;2022-07-29T08:09:34;4.47;;;4.03;;
11346;SDS011;5728;42.722;23.258;2022-07-29T08:12:03;6.13;;;4.05;;
11346;SDS011;5728;42.722;23.258;2022-07-29T08:14:31;4.75;;;3.88;;
11346;SDS011;5728;42.722;23.258;2022-07-29T08:16:58;4.20;;;3.72;;
11346;SDS011;5728;42.722;23.258;2022-07-29T08:19:24;5.22;;;4.22;;
11346;SDS011;5728;42.722;23.258;2022-07-29T08:21:51;8.40;;;3.85;;
11346;SDS011;5728;42.722;23.258;2022-07-29T08:24:18;8.73;;;4.05;;
11346;SDS011;5728;42.722;23.258;2022-07-29T08:27:01;4.88;;;4.38;;
11346;SDS011;5728;42.722;23.258;2022-07-29T08:29:30;5.45;;;4.00;;
11346;SDS011;5728;42.722;23.258;2022-07-29T08:31:56;4.90;;;4.03;;
11346;SDS011;5728;42.722;23.258;2022-07-29T08:34:23;4.13;;;3.72;;
11346;SDS011;5728;42.722;23.258;2022-07-29T08:36:50;6.65;;;3.65;;
11346;SDS011;5728;42.722;23.258;2022-07-29T08:39:17;5.78;;;3.83;;
11346;SDS011;5728;42.722;23.258;2022-07-29T08:41:43;6.57;;;3.95;;
11346;SDS011;5728;42.722;23.258;2022-07-29T08:44:12;4.43;;;3.53;;
11346;SDS011;5728;42.722;23.258;2022-07-29T08:46:39;6.28;;;3.65;;
11346;SDS011;5728;42.722;23.258;2022-07-29T08:49:05;4.32;;;3.63;;
11346;SDS011;5728;42.722;23.258;2022-07-29T08:51:33;3.97;;;3.50;;
11346;SDS011;5728;42.722;23.258;2022-07-29T08:54:02;7.07;;;3.80;;
11346;SDS011;5728;42.722;23.258;2022-07-29T08:56:29;4.32;;;3.60;;
11346;SDS011;5728;42.722;23.258;2022-07-29T08:58:56;4.03;;;3.42;;
11346;SDS011;5728;42.722;23.258;2022-07-29T09:01:27;3.92;;;3.35;;
11346;SDS011;5728;42.722;23.258;2022-07-29T09:03:56;5.20;;;3.70;;
11346;SDS011;5728;42.722;23.258;2022-07-29T09:06:26;4.20;;;3.63;;
11346;SDS011;5728;42.722;23.258;2022-07-29T09:08:58;6.63;;;3.25;;
11346;SDS011;5728;42.722;23.258;2022-07-29T09:11:25;4.05;;;3.45;;
11346;SDS011;5728;42.722;23.258;2022-07-29T09:13:53;7.28;;;3.58;;
11346;SDS011;5728;42.722;23.258;2022-07-29T09:16:20;4.32;;;3.20;;
11346;SDS011;5728;42.722;23.258;2022-07-29T09:18:48;3.58;;;3.28;;
11346;SDS011;5728;42.722;23.258;2022-07-29T09:21:16;6.53;;;2.90;;
11346;SDS011;5728;42.722;23.258;2022-07-29T09:24:05;3.30;;;3.00;;
11346;SDS011;5728;42.722;23.258;2022-07-29T09:26:33;8.07;;;3.35;;
11346;SDS011;5728;42.722;23.258;2022-07-29T09:29:07;3.33;;;2.97;;
11346;SDS011;5728;42.722;23.258;2022-07-29T09:31:36;5.40;;;3.13;;
11346;SDS011;5728;42.722;23.258;2022-07-29T09:34:08;4.50;;;3.42;;
11346;SDS011;5728;42.722;23.258;2022-07-29T09:36:40;3.72;;;3.40;;
11346;SDS011;5728;42.722;23.258;2022-07-29T09:39:07;4.90;;;3.72;;
11346;SDS011;5728;42.722;23.258;2022-07-29T09:41:44;4.32;;;3.30;;
11346;SDS011;5728;42.722;23.258;2022-07-29T09:44:12;6.35;;;4.03;;
11346;SDS011;5728;42.722;23.258;2022-07-29T09:46:40;11.52;;;3.80;;
11346;SDS011;5728;42.722;23.258;2022-07-29T09:49:10;7.32;;;3.40;;
11346;SDS011;5728;42.722;23.258;2022-07-29T09:51:38;4.95;;;3.03;;
11346;SDS011;5728;42.722;23.258;2022-07-29T09:56:51;3.88;;;3.05;;
11346;SDS011;5728;42.722;23.258;2022-07-29T09:59:19;3.33;;;3.00;;
11346;SDS011;5728;42.722;23.258;2022-07-29T10:01:49;3.40;;;3.10;;
11346;SDS011;5728;42.722;23.258;2022-07-29T10:04:17;3.70;;;3.25;;
11346;SDS011;5728;42.722;23.258;2022-07-29T10:06:57;9.68;;;3.50;;
11346;SDS011;5728;42.722;23.258;2022-07-29T10:09:25;4.10;;;3.58;;
11346;SDS011;5728;42.722;23.258;2022-07-29T10:12:02;6.03;;;3.72;;
11346;SDS011;5728;42.722;23.258;2022-07-29T10:14:40;4.38;;;3.58;;
11346;SDS011;5728;42.722;23.258;2022-07-29T10:17:07;5.03;;;4.28;;
11346;SDS011;5728;42.722;23.258;2022-07-29T10:19:37;4.65;;;3.55;;
11346;SDS011;5728;42.722;23.258;2022-07-29T10:22:05;4.57;;;3.45;;
11346;SDS011;5728;42.722;23.258;2022-07-29T10:24:34;4.10;;;3.35;;
11346;SDS011;5728;42.722;23.258;2022-07-29T10:27:03;4.65;;;3.85;;
11346;SDS011;5728;42.722;23.258;2022-07-29T10:29:31;13.57;;;3.47;;
11346;SDS011;5728;42.722;23.258;2022-07-29T10:32:05;5.07;;;4.07;;
11346;SDS011;5728;42.722;23.258;2022-07-29T10:37:43;3.60;;;3.30;;
11346;SDS011;5728;42.722;23.258;2022-07-29T10:40:32;3.63;;;3.33;;
11346;SDS011;5728;42.722;23.258;2022-07-29T10:43:26;4.00;;;3.60;;
11346;SDS011;5728;42.722;23.258;2022-07-29T10:45:58;5.40;;;4.07;;
11346;SDS011;5728;42.722;23.258;2022-07-29T10:48:26;4.40;;;3.72;;
11346;SDS011;5728;42.722;23.258;2022-07-29T10:50:58;5.07;;;3.25;;
11346;SDS011;5728;42.722;23.258;2022-07-29T10:56:25;5.13;;;3.90;;
11346;SDS011;5728;42.722;23.258;2022-07-29T11:01:51;4.05;;;3.55;;
11346;SDS011;5728;42.722;23.258;2022-07-29T11:07:20;3.42;;;3.13;;
11346;SDS011;5728;42.722;23.258;2022-07-29T11:12:52;4.63;;;3.35;;
11346;SDS011;5728;42.722;23.258;2022-07-29T11:15:20;7.68;;;3.80;;
11346;SDS011;5728;42.722;23.258;2022-07-29T11:18:04;3.92;;;3.55;;
11346;SDS011;5728;42.722;23.258;2022-07-29T11:20:33;5.03;;;3.50;;
11346;SDS011;5728;42.722;23.258;2022-07-29T11:23:03;3.65;;;3.33;;
11346;SDS011;5728;42.722;23.258;2022-07-29T11:25:44;6.53;;;3.70;;
11346;SDS011;5728;42.722;23.258;2022-07-29T11:28:13;4.30;;;3.83;;
11346;SDS011;5728;42.722;23.258;2022-07-29T11:30:46;3.72;;;3.42;;
11346;SDS011;5728;42.722;23.258;2022-07-29T11:33:26;4.32;;;3.83;;
11346;SDS011;5728;42.722;23.258;2022-07-29T11:36:07;4.60;;;3.72;;
11346;SDS011;5728;42.722;23.258;2022-07-29T11:38:37;5.18;;;3.75;;
11346;SDS011;5728;42.722;23.258;2022-07-29T11:41:23;5.93;;;3.95;;
11346;SDS011;5728;42.722;23.258;2022-07-29T11:43:51;5.15;;;4.43;;
11346;SDS011;5728;42.722;23.258;2022-07-29T11:49:10;12.18;;;3.42;;
11346;SDS011;5728;42.722;23.258;2022-07-29T11:51:38;4.90;;;3.28;;
11346;SDS011;5728;42.722;23.258;2022-07-29T11:54:09;4.97;;;3.50;;
11346;SDS011;5728;42.722;23.258;2022-07-29T11:56:41;7.93;;;3.70;;
11346;SDS011;5728;42.722;23.258;2022-07-29T11:59:10;8.73;;;3.80;;
11346;SDS011;5728;42.722;23.258;2022-07-29T12:01:51;3.90;;;3.60;;
11346;SDS011;5728;42.722;23.258;2022-07-29T12:04:18;4.13;;;3.72;;
11346;SDS011;5728;42.722;23.258;2022-07-29T12:06:48;4.22;;;3.90;;
11346;SDS011;5728;42.722;23.258;2022-07-29T12:09:17;5.53;;;3.92;;
11346;SDS011;5728;42.722;23.258;2022-07-29T12:11:45;10.02;;;3.83;;
11346;SDS011;5728;42.722;23.258;2022-07-29T12:14:24;5.03;;;4.30;;
11346;SDS011;5728;42.722;23.258;2022-07-29T12:16:51;6.10;;;4.10;;
11346;SDS011;5728;42.722;23.258;2022-07-29T12:19:18;4.43;;;4.03;;
11346;SDS011;5728;42.722;23.258;2022-07-29T12:21:45;4.03;;;3.60;;
11346;SDS011;5728;42.722;23.258;2022-07-29T12:24:13;3.85;;;3.50;;
11346;SDS011;5728;42.722;23.258;2022-07-29T12:26:50;11.88;;;4.70;;
11346;SDS011;5728;42.722;23.258;2022-07-29T12:29:17;4.85;;;4.18;;
11346;SDS011;5728;42.722;23.258;2022-07-29T12:31:44;4.05;;;3.75;;
11346;SDS011;5728;42.722;23.258;2022-07-29T12:34:12;4.30;;;3.90;;
11346;SDS011;5728;42.722;23.258;2022-07-29T12:36:39;5.72;;;4.47;;
11346;SDS011;5728;42.722;23.258;2022-07-29T12:39:06;4.13;;;3.80;;
11346;SDS011;5728;42.722;23.258;2022-07-29T12:41:34;8.13;;;3.80;;
11346;SDS011;5728;42.722;23.258;2022-07-29T12:44:02;4.32;;;4.00;;
11346;SDS011;5728;42.722;23.258;2022-07-29T12:46:29;5.93;;;4.38;;
11346;SDS011;5728;42.722;23.258;2022-07-29T12:48:56;7.43;;;4.35;;
11346;SDS011;5728;42.722;23.258;2022-07-29T12:51:29;11.77;;;4.38;;
11346;SDS011;5728;42.722;23.258;2022-07-29T12:54:07;12.52;;;4.13;;
11346;SDS011;5728;42.722;23.258;2022-07-29T12:56:36;7.15;;;4.20;;
11346;SDS011;5728;42.722;23.258;2022-07-29T12:59:12;9.90;;;3.75;;
11346;SDS011;5728;42.722;23.258;2022-07-29T13:01:40;5.28;;;4.32;;
11346;SDS011;5728;42.722;23.258;2022-07-29T13:04:07;5.15;;;4.30;;
11346;SDS011;5728;42.722;23.258;2022-07-29T13:06:35;4.60;;;4.20;;
11346;SDS011;5728;42.722;23.258;2022-07-29T13:09:08;9.18;;;3.88;;
11346;SDS011;5728;42.722;23.258;2022-07-29T13:11:37;6.45;;;4.53;;
11346;SDS011;5728;42.722;23.258;2022-07-29T13:14:05;6.88;;;4.50;;
11346;SDS011;5728;42.722;23.258;2022-07-29T13:16:35;6.28;;;4.93;;
11346;SDS011;5728;42.722;23.258;2022-07-29T13:19:03;6.68;;;4.63;;
11346;SDS011;5728;42.722;23.258;2022-07-29T13:21:31;5.30;;;4.65;;
11346;SDS011;5728;42.722;23.258;2022-07-29T13:23:58;7.05;;;4.85;;
11346;SDS011;5728;42.722;23.258;2022-07-29T13:26:25;5.50;;;4.35;;
11346;SDS011;5728;42.722;23.258;2022-07-29T13:28:53;5.93;;;4.65;;
11346;SDS011;5728;42.722;23.258;2022-07-29T13:31:19;5.03;;;4.30;;
11346;SDS011;5728;42.722;23.258;2022-07-29T13:33:48;8.10;;;4.80;;
11346;SDS011;5728;42.722;23.258;2022-07-29T13:36:15;4.78;;;4.15;;
11346;SDS011;5728;42.722;23.258;2022-07-29T13:38:42;5.18;;;4.68;;
11346;SDS011;5728;42.722;23.258;2022-07-29T13:41:09;6.50;;;4.70;;
11346;SDS011;5728;42.722;23.258;2022-07-29T13:43:36;5.28;;;4.78;;
11346;SDS011;5728;42.722;23.258;2022-07-29T13:46:02;6.90;;;4.90;;
11346;SDS011;5728;42.722;23.258;2022-07-29T13:48:29;5.60;;;4.65;;
11346;SDS011;5728;42.722;23.258;2022-07-29T13:50:57;5.13;;;4.55;;
11346;SDS011;5728;42.722;23.258;2022-07-29T13:53:24;4.78;;;4.28;;
11346;SDS011;5728;42.722;23.258;2022-07-29T13:55:52;5.60;;;4.28;;
11346;SDS011;5728;42.722;23.258;2022-07-29T13:58:19;6.40;;;4.57;;
11346;SDS011;5728;42.722;23.258;2022-07-29T14:00:46;5.85;;;4.43;;
11346;SDS011;5728;42.722;23.258;2022-07-29T14:03:13;6.90;;;4.90;;
11346;SDS011;5728;42.722;23.258;2022-07-29T14:05:40;5.97;;;4.43;;
11346;SDS011;5728;42.722;23.258;2022-07-29T14:08:08;4.28;;;3.88;;
11346;SDS011;5728;42.722;23.258;2022-07-29T14:10:35;5.80;;;4.72;;
11346;SDS011;5728;42.722;23.258;2022-07-29T14:13:01;6.07;;;4.60;;
11346;SDS011;5728;42.722;23.258;2022-07-29T14:15:28;5.07;;;4.57;;
11346;SDS011;5728;42.722;23.258;2022-07-29T14:17:58;5.57;;;5.07;;
11346;SDS011;5728;42.722;23.258;2022-07-29T14:20:25;4.93;;;4.47;;
11346;SDS011;5728;42.722;23.258;2022-07-29T14:22:53;7.00;;;4.55;;
11346;SDS011;5728;42.722;23.258;2022-07-29T14:25:21;5.68;;;4.88;;
11346;SDS011;5728;42.722;23.258;2022-07-29T14:27:51;4.82;;;4.40;;
11346;SDS011;5728;42.722;23.258;2022-07-29T14:30:19;6.60;;;4.30;;
11346;SDS011;5728;42.722;23.258;2022-07-29T14:32:46;6.10;;;4.85;;
11346;SDS011;5728;42.722;23.258;2022-07-29T14:35:13;6.93;;;4.55;;
11346;SDS011;5728;42.722;23.258;2022-07-29T14:37:39;4.55;;;4.10;;
11346;SDS011;5728;42.722;23.258;2022-07-29T14:40:06;6.57;;;4.78;;
11346;SDS011;5728;42.722;23.258;2022-07-29T14:42:35;5.05;;;4.55;;
11346;SDS011;5728;42.722;23.258;2022-07-29T14:45:03;8.20;;;4.57;;
11346;SDS011;5728;42.722;23.258;2022-07-29T14:47:31;5.90;;;4.20;;
11346;SDS011;5728;42.722;23.258;2022-07-29T14:49:58;5.35;;;4.82;;
11346;SDS011;5728;42.722;23.258;2022-07-29T14:52:24;5.72;;;4.78;;
11346;SDS011;5728;42.722;23.258;2022-07-29T14:54:51;4.32;;;3.92;;
11346;SDS011;5728;42.722;23.258;2022-07-29T14:57:18;5.00;;;4.50;;
11346;SDS011;5728;42.722;23.258;2022-07-29T14:59:49;5.13;;;4.47;;
11346;SDS011;5728;42.722;23.258;2022-07-29T15:02:15;8.10;;;5.13;;
11346;SDS011;5728;42.722;23.258;2022-07-29T15:04:42;7.15;;;4.95;;
11346;SDS011;5728;42.722;23.258;2022-07-29T15:07:11;5.35;;;4.82;;
11346;SDS011;5728;42.722;23.258;2022-07-29T15:09:37;6.05;;;4.90;;